Terminal Aerodrome Forecast
Issued by NWS Twin Cities, MN

Home | Current Version | Previous Version | Text Only | Print | Product List | Glossary On
Versions: 1 2 3 4 5 6 7 8 9 10 11 12 13 14 15 16 17 18 19 20 21 22 23 24 25
000
FTUS43 KMPX 182341
TAFMSP
TAF
KMSP 182341Z 1900/2006 07010G16KT P6SM BKN100 OVC200
     FM190300 09013G20KT P6SM -RA BKN070 OVC200
     FM190400 10014G21KT 6SM -RA OVC050
     FM190800 12016G22KT 4SM -RA SCT015 OVC025
     FM191400 19012G17KT P6SM VCSH OVC020
     FM191700 26011G18KT P6SM SCT020 OVC035
     FM192200 32013G21KT P6SM SCT020 BKN040=

USA.gov is the U.S. government's official web portal to all federal, state and local government web resources and services.